createdAt,value
2023-05-07T00:00:00.396Z,1.70
2023-05-07T00:02:27.198Z,1.80
2023-05-07T00:04:54.119Z,1.60
2023-05-07T00:07:21.088Z,1.90
2023-05-07T00:09:47.940Z,2.10
2023-05-07T00:12:15.353Z,1.80
2023-05-07T00:14:42.199Z,1.10
2023-05-07T00:17:09.040Z,1.30
2023-05-07T00:19:36.042Z,1.40
2023-05-07T00:22:03.026Z,1.40
2023-05-07T00:24:29.994Z,1.70
2023-05-07T00:26:58.510Z,1.70
2023-05-07T00:29:25.570Z,2.50
2023-05-07T00:31:54.543Z,2.00
2023-05-07T00:34:21.532Z,1.40
2023-05-07T00:36:48.718Z,1.40
2023-05-07T00:39:15.489Z,1.60
2023-05-07T00:41:42.614Z,1.40
2023-05-07T00:44:12.002Z,1.70
2023-05-07T00:46:39.706Z,1.90
2023-05-07T00:49:07.042Z,1.50
2023-05-07T00:51:34.254Z,1.70
2023-05-07T00:54:02.440Z,1.90
2023-05-07T00:56:29.390Z,1.50
2023-05-07T00:58:56.391Z,2.30
2023-05-07T01:01:23.373Z,1.60
2023-05-07T01:03:50.335Z,1.40
2023-05-07T01:06:17.789Z,2.00
2023-05-07T01:08:45.427Z,2.30
2023-05-07T01:11:12.379Z,2.30
2023-05-07T01:13:39.322Z,2.10
2023-05-07T01:16:07.261Z,1.70
2023-05-07T01:18:34.461Z,1.70
2023-05-07T01:21:02.434Z,2.20
2023-05-07T01:23:29.282Z,2.10
2023-05-07T01:25:56.158Z,2.30
2023-05-07T01:28:25.636Z,1.80
2023-05-07T01:30:56.800Z,1.80
2023-05-07T01:33:24.561Z,1.90
2023-05-07T01:35:53.539Z,1.90
2023-05-07T01:38:22.083Z,1.80
2023-05-07T01:40:48.871Z,2.50
2023-05-07T01:43:17.298Z,2.40
2023-05-07T01:45:44.991Z,2.10
2023-05-07T01:48:12.085Z,2.40
2023-05-07T01:50:39.047Z,2.40
2023-05-07T01:53:06.037Z,1.60
2023-05-07T01:55:32.938Z,2.10
2023-05-07T01:58:00.385Z,2.50
2023-05-07T02:00:27.707Z,2.00
2023-05-07T02:02:55.094Z,2.30
2023-05-07T02:05:33.322Z,1.90
2023-05-07T02:08:06.502Z,2.00
2023-05-07T02:10:33.529Z,2.30
2023-05-07T02:13:02.417Z,1.60
2023-05-07T02:15:29.713Z,2.30
2023-05-07T02:18:03.130Z,1.70
2023-05-07T02:20:30.212Z,1.70
2023-05-07T02:22:57.226Z,1.80
2023-05-07T02:25:24.291Z,1.80
2023-05-07T02:27:51.287Z,1.80
2023-05-07T02:30:18.787Z,1.80
2023-05-07T02:32:46.101Z,1.40
2023-05-07T02:35:13.299Z,1.90
2023-05-07T02:37:40.315Z,1.90
2023-05-07T02:43:48.942Z,2.20
2023-05-07T02:46:17.563Z,1.60
2023-05-07T02:48:47.339Z,2.40
2023-05-07T02:51:14.291Z,1.80
2023-05-07T02:53:42.978Z,2.30
2023-05-07T02:56:09.845Z,1.90
2023-05-07T02:58:37.172Z,1.80
2023-05-07T03:01:04.557Z,1.90
2023-05-07T03:03:36.597Z,2.30
2023-05-07T03:06:03.861Z,2.60
2023-05-07T03:08:31.037Z,2.70
2023-05-07T03:13:14.120Z,2.40
2023-05-07T03:15:41.433Z,2.80
2023-05-07T03:18:08.617Z,2.20
2023-05-07T03:20:37.896Z,3.30
2023-05-07T03:23:05.111Z,2.40
2023-05-07T03:25:33.129Z,3.10
2023-05-07T03:28:00.148Z,2.40
2023-05-07T03:30:34.086Z,2.80
2023-05-07T03:33:01.200Z,2.90
2023-05-07T03:35:28.781Z,2.40
2023-05-07T03:37:57.006Z,2.40
2023-05-07T03:40:24.126Z,2.80
2023-05-07T03:42:53.410Z,2.80
2023-05-07T03:45:21.909Z,2.40
2023-05-07T03:47:54.701Z,2.30
2023-05-07T03:50:22.175Z,1.80
2023-05-07T03:52:49.527Z,2.20
2023-05-07T03:55:19.264Z,2.70
2023-05-07T03:57:51.058Z,2.80
2023-05-07T04:00:21.373Z,2.60
2023-05-07T04:02:48.919Z,2.10
2023-05-07T04:05:19.718Z,2.20
2023-05-07T04:07:48.669Z,4.40
2023-05-07T04:10:16.820Z,2.80
2023-05-07T04:12:44.848Z,2.20
2023-05-07T04:15:14.118Z,2.30
2023-05-07T04:17:43.063Z,2.90
2023-05-07T04:20:11.984Z,2.50
2023-05-07T04:22:39.646Z,1.90
2023-05-07T04:25:07.572Z,2.40
2023-05-07T04:27:36.116Z,1.90
2023-05-07T04:30:04.454Z,2.60
2023-05-07T04:32:34.958Z,2.40
2023-05-07T04:35:03.089Z,2.30
2023-05-07T04:37:33.538Z,2.20
2023-05-07T04:40:01.639Z,2.40
2023-05-07T04:42:29.479Z,2.40
2023-05-07T04:44:57.692Z,2.10
2023-05-07T04:47:24.844Z,1.90
2023-05-07T04:49:53.380Z,2.50
2023-05-07T04:52:20.623Z,1.60
2023-05-07T04:54:48.580Z,1.40
2023-05-07T04:57:16.099Z,1.90
2023-05-07T04:59:43.494Z,1.80
2023-05-07T05:02:12.661Z,2.10
2023-05-07T05:04:39.844Z,2.00
2023-05-07T05:07:07.718Z,1.60
2023-05-07T05:09:34.705Z,1.70
2023-05-07T05:12:01.868Z,1.70
2023-05-07T05:14:30.603Z,1.70
2023-05-07T05:16:58.113Z,1.80
2023-05-07T05:19:25.135Z,2.00
2023-05-07T05:21:52.320Z,1.60
2023-05-07T05:24:19.342Z,1.80
2023-05-07T05:26:46.261Z,1.60
2023-05-07T05:29:13.760Z,1.90
2023-05-07T05:31:42.897Z,1.60
2023-05-07T05:34:10.604Z,1.50
2023-05-07T05:36:38.410Z,1.30
2023-05-07T05:39:05.403Z,1.80
2023-05-07T05:41:33.266Z,1.90
2023-05-07T05:44:00.688Z,1.10
2023-05-07T05:46:28.560Z,1.30
2023-05-07T05:48:56.695Z,1.20
2023-05-07T05:51:24.383Z,1.60
2023-05-07T05:53:51.370Z,1.50
2023-05-07T05:56:18.649Z,1.90
2023-05-07T05:58:45.777Z,1.40
2023-05-07T06:01:13.246Z,2.20
2023-05-07T06:03:40.674Z,1.40
2023-05-07T06:06:12.708Z,1.60
2023-05-07T06:08:39.728Z,1.20
2023-05-07T06:11:07.124Z,2.10
2023-05-07T06:13:35.689Z,1.50
2023-05-07T06:16:02.755Z,1.10
2023-05-07T06:18:30.195Z,1.50
2023-05-07T06:20:57.637Z,1.50
2023-05-07T06:23:26.923Z,1.20
2023-05-07T06:25:53.907Z,1.20
2023-05-07T06:28:23.848Z,1.30
2023-05-07T06:30:51.481Z,1.30
2023-05-07T06:33:18.677Z,1.20
2023-05-07T06:35:46.116Z,1.00
2023-05-07T06:38:13.597Z,1.20
2023-05-07T06:40:41.642Z,0.90
2023-05-07T06:43:08.732Z,1.20
2023-05-07T06:45:58.816Z,1.30
2023-05-07T06:48:25.977Z,1.10
2023-05-07T06:50:59.244Z,1.70
2023-05-07T06:53:27.135Z,1.10
2023-05-07T06:55:54.527Z,0.90
2023-05-07T06:58:21.580Z,1.40
2023-05-07T07:00:49.079Z,1.10
2023-05-07T07:03:16.812Z,1.60
2023-05-07T07:05:44.021Z,1.40
2023-05-07T07:19:55.835Z,1.30
2023-05-07T07:22:23.609Z,1.60
2023-05-07T07:24:52.437Z,0.90
2023-05-07T07:27:19.691Z,0.90
2023-05-07T07:29:46.857Z,1.20
2023-05-07T07:32:13.933Z,1.30
2023-05-07T07:34:41.320Z,1.30
2023-05-07T07:37:09.214Z,0.70
2023-05-07T07:39:38.841Z,1.10
2023-05-07T07:42:06.711Z,0.90
2023-05-07T07:44:34.150Z,1.00
2023-05-07T07:47:05.906Z,1.40
2023-05-07T07:49:33.662Z,0.70
2023-05-07T07:52:03.785Z,1.00
2023-05-07T07:54:31.520Z,1.00
2023-05-07T07:56:59.059Z,1.10
2023-05-07T07:59:26.685Z,1.10
2023-05-07T08:01:56.865Z,2.20
2023-05-07T08:04:24.318Z,0.90
2023-05-07T08:06:51.700Z,1.20
2023-05-07T08:09:18.700Z,0.90
2023-05-07T08:11:47.109Z,1.20
2023-05-07T08:14:14.546Z,0.80
2023-05-07T08:16:43.408Z,1.30
2023-05-07T08:19:11.228Z,1.00
2023-05-07T08:21:41.785Z,0.90
2023-05-07T08:24:09.735Z,1.00
2023-05-07T08:26:37.512Z,0.70
2023-05-07T08:29:05.553Z,0.80
2023-05-07T08:31:32.546Z,1.00
2023-05-07T08:33:59.777Z,0.80
2023-05-07T08:36:27.021Z,0.70
2023-05-07T08:38:54.717Z,1.20
2023-05-07T08:41:22.163Z,1.00
2023-05-07T08:43:51.451Z,0.90
2023-05-07T08:46:22.783Z,0.70
2023-05-07T08:48:51.997Z,1.00
2023-05-07T08:51:21.518Z,1.80
2023-05-07T08:53:49.717Z,0.50
2023-05-07T08:56:22.365Z,1.00
2023-05-07T08:58:51.693Z,0.70
2023-05-07T09:01:18.866Z,1.70
2023-05-07T09:03:50.547Z,1.30
2023-05-07T09:06:19.366Z,0.80
2023-05-07T09:08:53.729Z,0.80
2023-05-07T09:11:24.874Z,1.00
2023-05-07T09:13:57.432Z,1.00
2023-05-07T09:16:27.072Z,1.20
2023-05-07T09:18:54.912Z,1.10
2023-05-07T09:21:24.025Z,0.90
2023-05-07T09:23:53.134Z,0.80
2023-05-07T09:26:24.950Z,1.20
2023-05-07T09:28:52.705Z,5.40
2023-05-07T09:31:21.602Z,0.80
2023-05-07T09:33:49.848Z,0.80
2023-05-07T09:36:16.959Z,1.40
2023-05-07T09:38:45.769Z,1.00
2023-05-07T09:41:13.622Z,0.70
2023-05-07T09:43:45.583Z,1.40
2023-05-07T09:46:15.483Z,0.90
2023-05-07T09:48:46.973Z,0.90
2023-05-07T09:51:34.805Z,0.90
2023-05-07T09:54:03.876Z,0.90
2023-05-07T09:56:32.488Z,1.00
2023-05-07T09:59:03.043Z,1.00
2023-05-07T10:01:32.378Z,1.10
2023-05-07T10:03:59.769Z,1.50
2023-05-07T10:06:26.946Z,1.10
2023-05-07T10:08:54.077Z,0.80
2023-05-07T10:11:21.785Z,0.80
2023-05-07T10:13:49.158Z,1.00
2023-05-07T10:16:16.626Z,1.40
2023-05-07T10:18:46.672Z,0.90
2023-05-07T10:21:22.079Z,0.80
2023-05-07T10:23:52.389Z,0.70
2023-05-07T10:26:20.454Z,1.00
2023-05-07T10:28:50.743Z,0.70
2023-05-07T10:31:50.555Z,1.20
2023-05-07T10:34:22.340Z,0.70
2023-05-07T10:36:49.394Z,1.10
2023-05-07T10:39:16.408Z,0.90
2023-05-07T10:41:43.894Z,1.20
2023-05-07T10:44:10.985Z,1.00
2023-05-07T10:46:38.224Z,1.00
2023-05-07T10:49:17.391Z,0.80
2023-05-07T10:52:19.646Z,1.00
2023-05-07T10:55:15.985Z,1.00
2023-05-07T10:57:43.535Z,1.40
2023-05-07T11:00:38.073Z,1.10
2023-05-07T11:03:08.412Z,0.80
2023-05-07T11:05:50.209Z,0.70
2023-05-07T11:08:24.806Z,0.90
2023-05-07T11:11:02.460Z,0.70
2023-05-07T11:13:47.712Z,0.80
2023-05-07T11:16:25.538Z,1.00
2023-05-07T11:18:59.983Z,0.90
2023-05-07T11:21:42.297Z,1.00
2023-05-07T11:24:24.320Z,1.00
2023-05-07T11:27:13.885Z,1.50
2023-05-07T11:29:43.004Z,1.20
2023-05-07T11:32:17.048Z,0.80
2023-05-07T11:34:52.885Z,0.80
2023-05-07T11:37:20.816Z,1.00
2023-05-07T11:40:07.723Z,0.70
2023-05-07T11:42:36.655Z,0.80
2023-05-07T11:45:03.948Z,0.90
2023-05-07T11:47:31.736Z,1.10
2023-05-07T11:50:00.098Z,0.90
2023-05-07T11:52:27.421Z,1.00
2023-05-07T11:54:58.789Z,1.30
2023-05-07T11:57:25.904Z,0.80
2023-05-07T11:59:56.462Z,0.80
2023-05-07T12:02:23.530Z,1.00
2023-05-07T12:04:50.586Z,0.90
2023-05-07T12:07:17.792Z,0.90
2023-05-07T12:09:48.912Z,1.50
2023-05-07T12:12:18.694Z,1.00
2023-05-07T12:14:46.672Z,0.90
2023-05-07T12:17:14.687Z,1.00
2023-05-07T12:19:43.258Z,1.30
2023-05-07T12:22:10.312Z,1.30
2023-05-07T12:24:51.481Z,0.60
2023-05-07T12:27:18.794Z,0.60
2023-05-07T12:29:49.827Z,0.70
2023-05-07T12:32:17.964Z,0.90
2023-05-07T12:34:45.875Z,0.80
2023-05-07T12:37:14.069Z,1.10
2023-05-07T12:39:50.757Z,0.90
2023-05-07T12:42:17.991Z,1.20
2023-05-07T12:44:46.953Z,0.60
2023-05-07T12:47:14.044Z,1.30
2023-05-07T12:49:41.325Z,1.40
2023-05-07T12:52:08.280Z,0.80
2023-05-07T12:54:39.648Z,0.90
2023-05-07T12:57:10.994Z,1.30
2023-05-07T12:59:39.312Z,0.80
2023-05-07T13:02:06.810Z,1.50
2023-05-07T13:04:34.685Z,0.80
2023-05-07T13:07:02.010Z,0.90
2023-05-07T13:09:30.426Z,0.90
2023-05-07T13:11:57.513Z,0.90
2023-05-07T13:14:24.781Z,1.20
2023-05-07T13:16:52.066Z,0.90
2023-05-07T13:19:19.244Z,1.00
2023-05-07T13:21:46.522Z,0.90
2023-05-07T13:24:13.534Z,1.20
2023-05-07T13:26:40.533Z,1.10
2023-05-07T13:29:08.258Z,0.90
2023-05-07T13:31:36.800Z,1.20
2023-05-07T13:34:04.286Z,0.80
2023-05-07T13:36:34.134Z,1.60
2023-05-07T13:39:01.849Z,1.00
2023-05-07T13:41:29.032Z,0.80
2023-05-07T13:44:08.424Z,0.80
2023-05-07T13:46:35.717Z,0.70
2023-05-07T13:49:39.641Z,0.80
2023-05-07T13:52:07.500Z,1.90
2023-05-07T13:54:34.521Z,1.10
2023-05-07T13:57:01.694Z,0.90
2023-05-07T13:59:28.612Z,0.80
2023-05-07T14:01:56.292Z,1.10
2023-05-07T14:04:23.340Z,0.70
2023-05-07T14:06:50.390Z,0.90
2023-05-07T14:09:17.501Z,0.90
2023-05-07T14:11:44.465Z,1.10
2023-05-07T14:14:24.287Z,1.20
2023-05-07T14:16:52.693Z,0.70
2023-05-07T14:22:36.218Z,1.00
2023-05-07T14:25:06.974Z,0.70
2023-05-07T14:27:34.869Z,1.00
2023-05-07T14:30:02.478Z,1.00
2023-05-07T14:44:00.098Z,0.90
2023-05-07T14:46:31.996Z,0.90
2023-05-07T14:49:06.009Z,0.80
2023-05-07T14:54:03.113Z,1.00
2023-05-07T14:56:30.170Z,1.00
2023-05-07T14:58:57.139Z,1.10
2023-05-07T15:01:24.165Z,2.90
2023-05-07T15:06:41.997Z,1.10
2023-05-07T15:08:40.988Z,1.00
2023-05-07T15:15:06.326Z,0.80
2023-05-07T15:17:33.791Z,1.00
2023-05-07T15:20:00.898Z,1.80
2023-05-07T15:22:29.429Z,1.10
2023-05-07T15:24:57.919Z,0.90
2023-05-07T15:30:41.623Z,0.90
2023-05-07T15:33:08.837Z,0.70
2023-05-07T15:35:35.949Z,1.10
2023-05-07T15:38:03.511Z,1.00
2023-05-07T15:40:31.865Z,0.70
2023-05-07T15:42:58.777Z,1.00
2023-05-07T15:45:25.713Z,1.00
2023-05-07T15:47:52.724Z,1.10
2023-05-07T15:50:19.938Z,1.00
2023-05-07T15:52:46.937Z,1.10
2023-05-07T15:55:14.515Z,0.90
2023-05-07T15:57:41.351Z,1.30
2023-05-07T16:00:10.367Z,0.90
2023-05-07T16:02:41.205Z,2.60
2023-05-07T16:05:10.538Z,1.00
2023-05-07T16:07:39.263Z,0.90
2023-05-07T16:10:07.810Z,1.10
2023-05-07T16:12:35.833Z,1.20
2023-05-07T16:15:03.306Z,1.80
2023-05-07T16:17:31.584Z,1.30
2023-05-07T16:19:58.495Z,0.70
2023-05-07T16:22:25.643Z,0.70
2023-05-07T16:24:52.760Z,1.10
2023-05-07T16:27:19.738Z,1.30
2023-05-07T16:29:46.577Z,1.20
2023-05-07T16:32:13.504Z,1.30
2023-05-07T16:34:40.383Z,1.00
2023-05-07T16:37:07.258Z,0.90
2023-05-07T16:39:34.251Z,0.90
2023-05-07T16:42:01.131Z,1.00
2023-05-07T16:44:28.615Z,1.10
2023-05-07T16:46:55.457Z,1.30
2023-05-07T16:49:22.263Z,1.80
2023-05-07T16:51:51.537Z,1.70
2023-05-07T16:54:18.548Z,2.10
2023-05-07T16:56:45.345Z,2.00
2023-05-07T16:59:12.093Z,2.00
2023-05-07T17:01:39.204Z,2.20
2023-05-07T17:04:06.372Z,1.60
2023-05-07T17:06:33.541Z,2.80
2023-05-07T17:09:00.549Z,2.00
2023-05-07T17:11:30.582Z,1.90
2023-05-07T17:13:57.644Z,2.00
2023-05-07T17:16:24.690Z,2.30
2023-05-07T17:18:51.764Z,2.30
2023-05-07T17:21:18.610Z,2.10
2023-05-07T17:23:45.558Z,2.20
2023-05-07T17:26:13.927Z,2.60
2023-05-07T17:28:40.868Z,2.50
2023-05-07T17:31:08.936Z,2.70
2023-05-07T17:33:36.274Z,2.60
2023-05-07T17:36:03.276Z,2.30
2023-05-07T17:38:31.474Z,2.00
2023-05-07T17:40:58.892Z,2.00
2023-05-07T17:43:25.644Z,2.20
2023-05-07T17:45:52.725Z,1.70
2023-05-07T17:48:20.698Z,2.30
2023-05-07T17:50:47.528Z,2.50
2023-05-07T17:53:14.419Z,2.40
2023-05-07T17:55:44.604Z,2.90
2023-05-07T17:58:11.557Z,2.70
2023-05-07T18:00:39.090Z,3.40
2023-05-07T18:03:06.645Z,3.00
2023-05-07T18:05:37.164Z,2.70
2023-05-07T18:08:04.605Z,3.70
2023-05-07T18:10:32.056Z,4.10
2023-05-07T18:12:58.913Z,3.40
2023-05-07T18:15:26.690Z,2.30
2023-05-07T18:17:53.583Z,2.70
2023-05-07T18:20:20.450Z,2.00
2023-05-07T18:22:47.361Z,2.10
2023-05-07T18:25:14.511Z,2.40
2023-05-07T18:27:41.351Z,2.00
2023-05-07T18:30:09.519Z,2.40
2023-05-07T18:32:37.077Z,2.30
2023-05-07T18:35:04.703Z,2.20
2023-05-07T18:37:32.048Z,2.30
2023-05-07T18:40:03.445Z,1.90
2023-05-07T18:42:31.048Z,5.60
2023-05-07T18:44:57.915Z,2.70
2023-05-07T18:47:25.145Z,5.20
2023-05-07T18:49:51.992Z,3.20
2023-05-07T18:52:55.363Z,2.00
2023-05-07T18:55:22.664Z,2.30
2023-05-07T18:57:49.671Z,2.30
2023-05-07T19:00:16.613Z,2.30
2023-05-07T19:02:44.443Z,1.40
2023-05-07T19:05:12.557Z,2.70
2023-05-07T19:07:40.196Z,1.70
2023-05-07T19:10:07.485Z,1.40
2023-05-07T19:12:34.899Z,1.50
2023-05-07T19:15:01.717Z,1.80
2023-05-07T19:17:29.349Z,1.80
2023-05-07T19:19:56.405Z,1.40
2023-05-07T19:22:23.183Z,1.70
2023-05-07T19:24:50.108Z,1.60
2023-05-07T19:27:17.520Z,1.40
2023-05-07T19:29:44.583Z,1.70
2023-05-07T19:32:11.628Z,1.60
2023-05-07T19:34:38.663Z,1.80
2023-05-07T19:37:05.523Z,1.60
2023-05-07T19:39:33.040Z,2.80
2023-05-07T19:42:00.754Z,1.30
2023-05-07T19:44:27.564Z,1.50
2023-05-07T19:46:54.360Z,2.20
2023-05-07T19:49:21.335Z,1.90
2023-05-07T19:51:48.066Z,1.80
2023-05-07T19:54:15.068Z,1.30
2023-05-07T19:56:41.928Z,1.70
2023-05-07T19:59:08.825Z,1.60
2023-05-07T20:01:36.074Z,1.40
2023-05-07T20:04:03.251Z,1.40
2023-05-07T20:06:31.209Z,1.80
2023-05-07T20:08:58.370Z,1.70
2023-05-07T20:11:26.342Z,1.70
2023-05-07T20:13:53.218Z,1.80
2023-05-07T20:16:20.355Z,1.70
2023-05-07T20:18:47.334Z,2.00
2023-05-07T20:21:14.889Z,2.50
2023-05-07T20:23:41.656Z,1.60
2023-05-07T20:26:09.078Z,2.20
2023-05-07T20:28:35.962Z,3.00
2023-05-07T20:31:03.228Z,2.00
2023-05-07T20:33:30.124Z,1.80
2023-05-07T20:35:57.685Z,1.20
2023-05-07T20:38:26.451Z,1.80
2023-05-07T20:40:53.363Z,1.50
2023-05-07T20:43:21.006Z,1.20
2023-05-07T20:45:48.376Z,2.10
2023-05-07T20:48:15.831Z,1.60
2023-05-07T20:50:42.872Z,1.10
2023-05-07T20:53:09.688Z,1.80
2023-05-07T20:55:37.303Z,1.50
2023-05-07T20:58:04.015Z,1.30
2023-05-07T21:00:32.183Z,1.10
2023-05-07T21:02:59.581Z,1.10
2023-05-07T21:05:26.404Z,1.80
2023-05-07T21:07:53.312Z,1.30
2023-05-07T21:10:20.402Z,1.20
2023-05-07T21:12:47.783Z,1.10
2023-05-07T21:15:14.616Z,1.30
2023-05-07T21:17:41.960Z,1.30
2023-05-07T21:20:09.081Z,1.20
2023-05-07T21:22:36.007Z,1.30
2023-05-07T21:25:02.965Z,1.10
2023-05-07T21:27:30.180Z,1.40
2023-05-07T21:30:02.777Z,1.60
2023-05-07T21:32:30.557Z,1.30
2023-05-07T21:34:58.681Z,1.50
2023-05-07T21:37:25.443Z,1.80
2023-05-07T21:39:52.519Z,1.40
2023-05-07T21:42:20.798Z,1.50
2023-05-07T21:44:49.445Z,1.40
2023-05-07T21:47:16.393Z,1.40
2023-05-07T21:49:43.140Z,1.50
2023-05-07T21:52:13.779Z,1.20
2023-05-07T21:54:41.562Z,1.30
2023-05-07T21:57:08.657Z,1.10
2023-05-07T21:59:37.451Z,1.20
2023-05-07T22:02:05.024Z,1.30
2023-05-07T22:04:32.039Z,0.90
2023-05-07T22:06:58.905Z,1.20
2023-05-07T22:09:26.632Z,1.10
2023-05-07T22:11:54.582Z,1.30
2023-05-07T22:14:22.214Z,1.00
2023-05-07T22:16:49.179Z,1.00
2023-05-07T22:19:16.083Z,1.50
2023-05-07T22:21:43.226Z,1.50
2023-05-07T22:24:10.376Z,1.50
2023-05-07T22:26:37.282Z,1.20
2023-05-07T22:29:04.113Z,1.70
2023-05-07T22:31:31.661Z,0.70
2023-05-07T22:33:58.656Z,1.00
2023-05-07T22:36:25.413Z,1.00
2023-05-07T22:38:52.357Z,0.90
2023-05-07T22:41:19.198Z,1.00
2023-05-07T22:43:46.048Z,0.80
2023-05-07T22:46:13.095Z,0.90
2023-05-07T22:48:39.804Z,1.30
2023-05-07T22:51:07.119Z,1.10
2023-05-07T22:53:34.108Z,1.20
2023-05-07T22:56:05.601Z,1.40
2023-05-07T22:58:32.976Z,1.10
2023-05-07T23:00:59.975Z,1.00
2023-05-07T23:03:26.818Z,1.10
2023-05-07T23:05:53.918Z,1.20
2023-05-07T23:08:21.190Z,1.00
2023-05-07T23:10:48.028Z,0.90
2023-05-07T23:13:16.709Z,1.10
2023-05-07T23:15:43.741Z,1.30
2023-05-07T23:18:11.125Z,1.20
2023-05-07T23:20:40.702Z,0.90
2023-05-07T23:23:07.724Z,0.80
2023-05-07T23:25:34.519Z,2.30
2023-05-07T23:28:03.282Z,1.40
2023-05-07T23:30:30.884Z,0.80
2023-05-07T23:32:57.730Z,1.20
2023-05-07T23:35:24.576Z,1.20
2023-05-07T23:37:51.337Z,1.20
2023-05-07T23:40:18.271Z,0.90
2023-05-07T23:42:45.109Z,1.10
2023-05-07T23:45:11.993Z,1.10
2023-05-07T23:47:39.573Z,1.00
2023-05-07T23:50:06.690Z,1.10
2023-05-07T23:52:34.046Z,0.90
2023-05-07T23:55:00.826Z,0.60
2023-05-07T23:57:28.079Z,1.20
2023-05-07T23:59:55.180Z,1.00
